Time;durP1;ratioP1;P1;durP2;ratioP2;P2;SDS_P1;SDS_P2;PMS_P1;PMS_P2;Temp;Humidity;BMP_temperature;BMP_pressure;BME280_temperature;BME280_humidity;BME280_pressure;Samples;Min_cycle;Max_cycle;Signal;HPM_P1;HPM_P2
2021/05/31 00:00:52;;;;;;;;;;;;;;;21.42;47.83;102128.69;2097085;28;3982;-74
2021/05/31 00:01:53;;;;;;;;;;;;;;;21.41;47.82;102129.84;2098247;28;4027;-75
2021/05/31 00:02:54;;;;;;;;;;;;;;;21.42;47.90;102130.66;2098068;28;4268;-75
2021/05/31 00:03:56;;;;;;;;;;;;;;;21.41;47.89;102129.84;2097359;28;4026;-75
2021/05/31 00:04:57;;;;;;;;;;;;;;;21.41;47.80;102126.16;2098957;28;3966;-73
2021/05/31 00:05:58;;;;;;;;;;;;;;;21.40;47.89;102128.16;2098220;28;3755;-73
2021/05/31 00:06:59;;;;;;;;;;;;;;;21.42;47.87;102130.66;2097092;28;3926;-73
2021/05/31 00:08:01;;;;;;;;;;;;;;;21.41;47.79;102132.69;2098472;28;3872;-73
2021/05/31 00:09:02;;;;;;;;;;;;;;;21.42;47.98;102127.81;2097017;28;4094;-70
2021/05/31 00:10:03;;;;;;;;;;;;;;;21.42;47.84;102133.50;2097445;28;3755;-71
2021/05/31 00:11:04;;;;;;;;;;;;;;;21.41;47.87;102129.84;2098365;28;4440;-71
2021/05/31 00:12:06;;;;;;;;;;;;;;;21.42;47.95;102133.50;2098006;28;3911;-70
2021/05/31 00:13:07;;;;;;;;;;;;;;;21.42;47.95;102127.81;2098473;28;4072;-70
2021/05/31 00:14:08;;;;;;;;;;;;;;;21.42;47.68;102133.50;2097460;28;3886;-70
2021/05/31 00:15:09;;;;;;;;;;;;;;;21.42;47.69;102131.53;2098607;28;4117;-70
2021/05/31 00:16:10;;;;;;;;;;;;;;;21.41;47.71;102132.69;2097457;28;3919;-70
2021/05/31 00:17:12;;;;;;;;;;;;;;;21.41;47.73;102131.84;2098329;28;3981;-69
2021/05/31 00:18:13;;;;;;;;;;;;;;;21.41;47.78;102126.16;2098381;28;4334;-69
2021/05/31 00:19:14;;;;;;;;;;;;;;;21.41;47.70;102126.97;2097775;28;3998;-70
2021/05/31 00:20:15;;;;;;;;;;;;;;;21.41;47.79;102124.13;2098054;28;3997;-70
2021/05/31 00:21:17;;;;;;;;;;;;;;;21.41;47.72;102120.47;2098879;28;3868;-70
2021/05/31 00:22:18;;;;;;;;;;;;;;;21.41;47.64;102129.00;2098329;28;4001;-70
2021/05/31 00:23:19;;;;;;;;;;;;;;;21.41;47.76;102124.13;2098387;28;4016;-70
2021/05/31 00:24:20;;;;;;;;;;;;;;;21.41;47.84;102121.28;2098187;28;4142;-71
2021/05/31 00:25:22;;;;;;;;;;;;;;;21.41;47.72;102123.31;2088690;28;3891;-71
2021/05/31 00:26:23;;;;;;;;;;;;;;;21.41;47.71;102120.47;2089703;28;3977;-71
2021/05/31 00:27:24;;;;;;;;;;;;;;;21.41;47.56;102118.44;2098207;28;3828;-72
2021/05/31 00:28:25;;;;;;;;;;;;;;;21.39;47.65;102111.38;2098037;28;3994;-73
2021/05/31 00:29:27;;;;;;;;;;;;;;;21.41;47.59;102123.31;2098058;28;3987;-72
2021/05/31 00:30:28;;;;;;;;;;;;;;;21.41;47.75;102117.59;2098001;28;3832;-72
2021/05/31 00:31:29;;;;;;;;;;;;;;;21.42;47.58;102116.44;2097711;28;4050;-71
2021/05/31 00:32:30;;;;;;;;;;;;;;;21.41;47.74;102120.47;2098500;28;4076;-71
2021/05/31 00:33:32;;;;;;;;;;;;;;;21.41;47.50;102111.91;2098793;28;3955;-71
2021/05/31 00:34:33;;;;;;;;;;;;;;;21.41;47.71;102120.47;2098519;28;3725;-72
2021/05/31 00:35:34;;;;;;;;;;;;;;;21.41;47.53;102109.06;2098131;28;4129;-72
2021/05/31 00:36:35;;;;;;;;;;;;;;;21.41;47.70;102112.75;2097847;28;4444;-72
2021/05/31 00:37:36;;;;;;;;;;;;;;;21.41;47.61;102114.75;2097666;28;3984;-72
2021/05/31 00:38:39;;;;;;;;;;;;;;;21.41;47.69;102112.75;2098317;28;4265;-73
2021/05/31 00:39:41;;;;;;;;;;;;;;;21.42;47.62;102114.44;2097515;28;5073;-71
2021/05/31 00:40:42;;;;;;;;;;;;;;;21.42;47.62;102116.44;2097069;28;4044;-73
2021/05/31 00:41:46;;;;;;;;;;;;;;;21.41;47.69;102109.91;2097867;28;4011;-73
2021/05/31 00:42:47;;;;;;;;;;;;;;;21.40;47.59;102113.94;2098038;28;3986;-72
2021/05/31 00:43:48;;;;;;;;;;;;;;;21.41;47.45;102109.06;2097660;28;4008;-72
2021/05/31 00:44:49;;;;;;;;;;;;;;;21.41;47.69;102121.28;2097180;28;4049;-72
2021/05/31 00:45:50;;;;;;;;;;;;;;;21.39;47.55;102106.53;2095455;28;3851;-73
2021/05/31 00:46:52;;;;;;;;;;;;;;;21.40;47.48;102108.22;2098532;28;3855;-74
2021/05/31 00:47:53;;;;;;;;;;;;;;;21.41;47.43;102112.75;2096422;28;3770;-73
2021/05/31 00:48:55;;;;;;;;;;;;;;;21.41;47.58;102112.75;2096774;28;4011;-74
2021/05/31 00:49:57;;;;;;;;;;;;;;;21.40;47.38;102105.38;2098109;28;4104;-73
2021/05/31 00:50:59;;;;;;;;;;;;;;;21.41;47.48;102109.06;2097610;28;3883;-73
2021/05/31 00:52:00;;;;;;;;;;;;;;;21.40;47.41;102101.69;2097803;28;3854;-71
2021/05/31 00:53:01;;;;;;;;;;;;;;;21.40;47.55;102108.22;2096716;28;4030;-71
2021/05/31 00:54:03;;;;;;;;;;;;;;;21.41;47.57;102109.06;2097445;28;3892;-72
2021/05/31 00:55:04;;;;;;;;;;;;;;;21.41;47.49;102109.06;2096606;28;5236;-72
2021/05/31 00:56:05;;;;;;;;;;;;;;;21.41;47.43;102104.22;2098020;28;5065;-72
2021/05/31 00:57:07;;;;;;;;;;;;;;;21.40;47.52;102111.06;2097178;28;3907;-71
2021/05/31 00:58:08;;;;;;;;;;;;;;;21.41;47.53;102109.06;2096591;28;4015;-71
2021/05/31 00:59:09;;;;;;;;;;;;;;;21.42;47.62;102107.88;2098496;28;3844;-71
2021/05/31 01:00:10;;;;;;;;;;;;;;;21.42;47.36;102102.19;2096206;28;4126;-72
2021/05/31 01:01:14;;;;;;;;;;;;;;;21.42;47.57;102107.88;2097919;28;3995;-72
2021/05/31 01:02:16;;;;;;;;;;;;;;;21.42;47.33;102108.75;2096742;28;3856;-71
2021/05/31 01:03:17;;;;;;;;;;;;;;;21.42;47.73;102105.03;2097008;28;4084;-73
2021/05/31 01:04:21;;;;;;;;;;;;;;;21.42;47.65;102105.91;2098218;28;3983;-73
2021/05/31 01:05:23;;;;;;;;;;;;;;;21.43;47.67;102106.75;2097820;28;4002;-74
2021/05/31 01:06:25;;;;;;;;;;;;;;;21.42;47.70;102105.03;2097922;28;4057;-73
2021/05/31 01:07:26;;;;;;;;;;;;;;;21.42;47.61;102105.91;2096651;28;3998;-74
2021/05/31 01:08:27;;;;;;;;;;;;;;;21.42;47.48;102105.03;2096882;28;3988;-76
2021/05/31 01:09:29;;;;;;;;;;;;;;;21.42;47.69;102102.19;2097533;28;3787;-71
2021/05/31 01:10:31;;;;;;;;;;;;;;;21.43;47.62;102101.06;2097596;28;3830;-73
2021/05/31 01:11:32;;;;;;;;;;;;;;;21.43;47.64;102103.91;2097222;28;4023;-74
2021/05/31 01:12:33;;;;;;;;;;;;;;;21.43;47.82;102099.03;2097265;28;3954;-73
2021/05/31 01:13:34;;;;;;;;;;;;;;;21.43;47.64;102103.91;2097718;28;4019;-73
2021/05/31 01:14:36;;;;;;;;;;;;;;;21.42;47.79;102100.22;2097675;28;3802;-73
2021/05/31 01:15:37;;;;;;;;;;;;;;;21.42;47.74;102094.53;2097912;28;4117;-72
2021/05/31 01:16:39;;;;;;;;;;;;;;;21.43;47.89;102098.19;2095934;28;4028;-72
2021/05/31 01:17:40;;;;;;;;;;;;;;;21.42;47.85;102100.22;2091092;28;4586;-70
2021/05/31 01:18:42;;;;;;;;;;;;;;;21.43;47.92;102101.06;2096582;28;3864;-72
2021/05/31 01:19:43;;;;;;;;;;;;;;;21.43;47.89;102095.34;2094049;28;4086;-71
2021/05/31 01:20:44;;;;;;;;;;;;;;;21.43;47.85;102101.06;2096874;28;4003;-71
2021/05/31 01:21:45;;;;;;;;;;;;;;;21.43;48.04;102101.88;2096211;28;4032;-71
2021/05/31 01:22:46;;;;;;;;;;;;;;;21.43;47.91;102101.06;2097229;28;4005;-71
2021/05/31 01:23:48;;;;;;;;;;;;;;;21.42;48.10;102093.66;2096163;28;4056;-72
2021/05/31 01:24:49;;;;;;;;;;;;;;;21.42;48.08;102100.22;2097198;28;4039;-73
2021/05/31 01:25:50;;;;;;;;;;;;;;;21.41;47.85;102097.69;2097391;28;4171;-71
2021/05/31 01:26:51;;;;;;;;;;;;;;;21.41;48.05;102095.66;2095136;28;4037;-71
2021/05/31 01:27:52;;;;;;;;;;;;;;;21.41;47.97;102092.81;2094906;28;5306;-71
2021/05/31 01:28:54;;;;;;;;;;;;;;;21.42;47.93;102103.06;2095331;28;3871;-71
2021/05/31 01:29:55;;;;;;;;;;;;;;;21.42;47.80;102107.88;2095580;28;4012;-71
2021/05/31 01:30:56;;;;;;;;;;;;;;;21.42;47.93;102099.34;2095310;28;3994;-71
2021/05/31 01:31:57;;;;;;;;;;;;;;;21.42;47.86;102096.50;2095254;28;3835;-71
2021/05/31 01:32:59;;;;;;;;;;;;;;;21.42;48.11;102105.91;2096642;28;6081;-71
2021/05/31 01:34:00;;;;;;;;;;;;;;;21.42;47.86;102099.34;2096320;28;3935;-72
2021/05/31 01:35:01;;;;;;;;;;;;;;;21.41;48.04;102098.50;2097561;28;4009;-71
2021/05/31 01:36:03;;;;;;;;;;;;;;;21.42;48.04;102099.34;2096457;28;5187;-72
2021/05/31 01:37:04;;;;;;;;;;;;;;;21.41;47.96;102098.50;2093840;28;3939;-72
2021/05/31 01:38:05;;;;;;;;;;;;;;;21.41;47.93;102091.97;2096143;28;3893;-72
2021/05/31 01:39:06;;;;;;;;;;;;;;;21.41;47.99;102098.50;2096568;28;3994;-72
2021/05/31 01:40:07;;;;;;;;;;;;;;;21.41;47.97;102091.97;2095921;28;3860;-72
2021/05/31 01:41:09;;;;;;;;;;;;;;;21.41;48.04;102094.84;2096967;28;5195;-72
2021/05/31 01:42:10;;;;;;;;;;;;;;;21.42;48.08;102096.50;2097404;28;3833;-74
2021/05/31 01:43:11;;;;;;;;;;;;;;;21.41;47.79;102091.97;2096484;28;3824;-73
2021/05/31 01:44:12;;;;;;;;;;;;;;;21.41;47.83;102092.81;2096540;28;4078;-74
2021/05/31 01:45:14;;;;;;;;;;;;;;;21.40;47.82;102096.84;2095538;28;3916;-73
2021/05/31 01:46:15;;;;;;;;;;;;;;;21.40;47.96;102099.69;2096207;28;3834;-73
2021/05/31 01:47:17;;;;;;;;;;;;;;;21.41;47.99;102091.97;2096842;28;4017;-74
2021/05/31 01:48:18;;;;;;;;;;;;;;;21.41;47.97;102091.97;2095419;28;3868;-73
2021/05/31 01:49:19;;;;;;;;;;;;;;;21.40;47.92;102102.53;2093830;28;3913;-73
2021/05/31 01:50:20;;;;;;;;;;;;;;;21.40;47.96;102090.31;2097830;28;4028;-73
2021/05/31 01:51:21;;;;;;;;;;;;;;;21.40;47.88;102090.31;2096863;28;4059;-73
2021/05/31 01:52:23;;;;;;;;;;;;;;;21.40;48.00;102087.47;2096984;28;3875;-73
2021/05/31 01:53:24;;;;;;;;;;;;;;;21.39;47.91;102092.28;2096405;28;4004;-72
2021/05/31 01:54:25;;;;;;;;;;;;;;;21.40;47.72;102085.47;2096610;28;3872;-71
2021/05/31 01:55:26;;;;;;;;;;;;;;;21.40;47.78;102093.16;2096033;28;4000;-72
2021/05/31 01:56:28;;;;;;;;;;;;;;;21.39;47.92;102089.44;2095871;28;4025;-74
2021/05/31 01:57:29;;;;;;;;;;;;;;;21.39;47.86;102089.44;2096584;28;3951;-74
2021/05/31 01:58:30;;;;;;;;;;;;;;;21.40;47.86;102091.16;2097027;28;3986;-73
2021/05/31 01:59:31;;;;;;;;;;;;;;;21.39;47.81;102083.75;2095860;28;3989;-73
2021/05/31 02:00:33;;;;;;;;;;;;;;;21.40;47.76;102082.59;2095512;28;5147;-73
2021/05/31 02:01:34;;;;;;;;;;;;;;;21.41;47.80;102089.13;2095846;28;5148;-73
2021/05/31 02:02:36;;;;;;;;;;;;;;;21.40;47.86;102082.59;2097367;28;3793;-73
2021/05/31 02:03:37;;;;;;;;;;;;;;;21.40;47.93;102078.94;2096477;28;3785;-73
2021/05/31 02:04:38;;;;;;;;;;;;;;;21.39;47.82;102080.91;2096431;28;3982;-73
2021/05/31 02:05:39;;;;;;;;;;;;;;;21.40;47.74;102074.06;2097238;28;3864;-72
2021/05/31 02:06:40;;;;;;;;;;;;;;;21.40;47.81;102076.06;2096528;28;5241;-71
2021/05/31 02:07:42;;;;;;;;;;;;;;;21.40;47.74;102079.75;2096241;28;4029;-73
2021/05/31 02:08:43;;;;;;;;;;;;;;;21.40;47.85;102079.75;2097001;28;4020;-73
2021/05/31 02:09:45;;;;;;;;;;;;;;;21.39;47.67;102078.06;2095617;28;3835;-72
2021/05/31 02:10:46;;;;;;;;;;;;;;;21.41;47.75;102074.91;2097619;28;3827;-73
2021/05/31 02:11:47;;;;;;;;;;;;;;;21.40;47.67;102070.38;2097118;28;4013;-70
2021/05/31 02:12:49;;;;;;;;;;;;;;;21.40;47.68;102071.22;2096773;28;3986;-70
2021/05/31 02:13:50;;;;;;;;;;;;;;;21.41;47.64;102066.34;2096527;28;4131;-70
2021/05/31 02:14:52;;;;;;;;;;;;;;;21.41;47.66;102063.50;2096949;28;4994;-71
2021/05/31 02:15:53;;;;;;;;;;;;;;;21.40;47.70;102061.84;2097289;28;5076;-73
2021/05/31 02:16:54;;;;;;;;;;;;;;;21.40;47.67;102056.97;2098012;28;4091;-73
2021/05/31 02:17:56;;;;;;;;;;;;;;;21.41;47.69;102057.81;2096004;28;4117;-72
2021/05/31 02:18:57;;;;;;;;;;;;;;;21.40;47.64;102062.69;2095776;28;3854;-73
2021/05/31 02:19:58;;;;;;;;;;;;;;;21.39;47.49;102055.28;2097213;28;4025;-74
2021/05/31 02:20:59;;;;;;;;;;;;;;;21.39;47.55;102060.97;2097376;28;3840;-75
2021/05/31 02:22:01;;;;;;;;;;;;;;;21.40;47.68;102062.69;2097450;28;5080;-73
2021/05/31 02:23:02;;;;;;;;;;;;;;;21.39;47.45;102049.59;2093309;28;6203;-74
2021/05/31 02:24:03;;;;;;;;;;;;;;;21.39;47.59;102052.44;2094178;28;4224;-76
2021/05/31 02:25:05;;;;;;;;;;;;;;;21.40;47.56;102059.00;2096025;28;3920;-72
2021/05/31 02:26:06;;;;;;;;;;;;;;;21.39;47.57;102054.44;2097131;28;4073;-72
2021/05/31 02:27:07;;;;;;;;;;;;;;;21.40;47.46;102050.47;2095423;28;4107;-73
2021/05/31 02:28:08;;;;;;;;;;;;;;;21.40;47.58;102056.16;2097314;28;4004;-72
2021/05/31 02:29:09;;;;;;;;;;;;;;;21.39;47.62;102058.13;2095569;28;4025;-72
2021/05/31 02:30:11;;;;;;;;;;;;;;;21.39;47.47;102052.44;2097000;28;4037;-73
2021/05/31 02:31:12;;;;;;;;;;;;;;;21.39;47.58;102049.59;2095863;28;4026;-72
2021/05/31 02:32:13;;;;;;;;;;;;;;;21.39;47.67;102049.59;2095018;28;3871;-72
2021/05/31 02:33:15;;;;;;;;;;;;;;;21.40;47.60;102050.47;2085056;28;4120;-73
2021/05/31 02:34:16;;;;;;;;;;;;;;;21.40;47.48;102050.47;2084550;28;5187;-71
2021/05/31 02:35:17;;;;;;;;;;;;;;;21.39;47.61;102051.59;2097130;28;4070;-71
2021/05/31 02:36:19;;;;;;;;;;;;;;;21.39;47.45;102043.91;2097342;28;4079;-72
2021/05/31 02:37:20;;;;;;;;;;;;;;;21.39;47.62;102054.44;2096557;28;3851;-70
2021/05/31 02:38:22;;;;;;;;;;;;;;;21.39;47.40;102049.59;2096756;28;3978;-69
2021/05/31 02:39:23;;;;;;;;;;;;;;;21.39;47.47;102051.59;2096649;28;5030;-70
2021/05/31 02:40:24;;;;;;;;;;;;;;;21.39;47.60;102054.44;2096899;28;4020;-70
2021/05/31 02:41:25;;;;;;;;;;;;;;;21.39;47.49;102057.28;2096636;28;4031;-69
2021/05/31 02:42:27;;;;;;;;;;;;;;;21.38;47.45;102058.47;2096646;28;3985;-69
2021/05/31 02:43:28;;;;;;;;;;;;;;;21.37;47.39;102069.03;2095517;28;4005;-70
2021/05/31 02:44:29;;;;;;;;;;;;;;;21.37;47.57;102057.63;2096614;28;3860;-69
2021/05/31 02:45:30;;;;;;;;;;;;;;;21.37;47.42;102060.47;2095961;28;3926;-69
2021/05/31 02:46:31;;;;;;;;;;;;;;;21.37;47.50;102051.09;2096616;28;4004;-69
2021/05/31 02:47:33;;;;;;;;;;;;;;;21.37;47.39;102056.78;2095734;28;3994;-69
2021/05/31 02:48:34;;;;;;;;;;;;;;;21.37;47.33;102065.31;2096408;28;4002;-69
2021/05/31 02:49:35;;;;;;;;;;;;;;;21.37;47.32;102059.63;2096685;28;3987;-69
2021/05/31 02:50:37;;;;;;;;;;;;;;;21.36;47.43;102058.75;2096703;28;3972;-69
2021/05/31 02:51:41;;;;;;;;;;;;;;;21.36;47.33;102058.75;2096287;28;4561;-69
2021/05/31 02:52:42;;;;;;;;;;;;;;;21.37;47.35;102056.78;2095635;28;3837;-69
2021/05/31 02:53:43;;;;;;;;;;;;;;;21.36;47.27;102055.91;2096497;28;4085;-69
2021/05/31 02:54:45;;;;;;;;;;;;;;;21.36;47.39;102058.75;2096616;28;4034;-70
2021/05/31 02:55:46;;;;;;;;;;;;;;;21.35;47.36;102055.06;2096544;28;3851;-70
2021/05/31 02:56:47;;;;;;;;;;;;;;;21.37;47.35;102065.31;2095557;28;4010;-70
2021/05/31 02:57:48;;;;;;;;;;;;;;;21.37;47.23;102065.31;2096694;28;4203;-71
2021/05/31 02:58:49;;;;;;;;;;;;;;;21.35;47.27;102055.06;2095203;28;4010;-71
2021/05/31 02:59:52;;;;;;;;;;;;;;;21.37;47.34;102068.16;2094977;28;3840;-71
2021/05/31 03:00:54;;;;;;;;;;;;;;;21.35;47.33;102057.91;2095577;28;4211;-71
2021/05/31 03:01:56;;;;;;;;;;;;;;;21.36;47.30;102067.28;2096303;28;3991;-71
2021/05/31 03:02:57;;;;;;;;;;;;;;;21.35;47.40;102065.63;2096161;28;3872;-71
2021/05/31 03:04:01;;;;;;;;;;;;;;;21.34;47.11;102063.97;2095683;28;5087;-72
2021/05/31 03:05:03;;;;;;;;;;;;;;;21.34;47.07;102064.78;2096844;28;5290;-71
2021/05/31 03:06:04;;;;;;;;;;;;;;;21.35;47.04;102068.47;2095717;28;4066;-72
2021/05/31 03:07:05;;;;;;;;;;;;;;;21.34;47.26;102070.47;2097124;28;4069;-71
2021/05/31 03:08:07;;;;;;;;;;;;;;;21.35;47.05;102065.63;2096759;28;4013;-71
2021/05/31 03:09:08;;;;;;;;;;;;;;;21.34;47.08;102064.78;2095860;28;4091;-71
2021/05/31 03:10:09;;;;;;;;;;;;;;;21.34;47.14;102053.41;2095928;28;3836;-72
2021/05/31 03:11:10;;;;;;;;;;;;;;;21.33;47.17;102068.78;2094911;28;4009;-72
2021/05/31 03:12:13;;;;;;;;;;;;;;;21.33;47.21;102068.78;2096334;28;3994;-72
2021/05/31 03:13:15;;;;;;;;;;;;;;;21.33;46.95;102068.78;2095565;28;3844;-72
2021/05/31 03:14:16;;;;;;;;;;;;;;;21.33;46.99;102071.63;2095418;28;3873;-72
2021/05/31 03:15:17;;;;;;;;;;;;;;;21.33;46.99;102068.78;2095666;28;3846;-71
2021/05/31 03:16:18;;;;;;;;;;;;;;;21.33;47.09;102065.94;2095371;28;5035;-70
2021/05/31 03:17:20;;;;;;;;;;;;;;;21.33;47.12;102068.78;2094971;28;3915;-71
2021/05/31 03:18:21;;;;;;;;;;;;;;;21.33;46.98;102065.09;2096255;28;4020;-71
2021/05/31 03:19:22;;;;;;;;;;;;;;;21.33;46.95;102065.94;2095965;28;3859;-71
2021/05/31 03:20:23;;;;;;;;;;;;;;;21.33;47.01;102060.25;2096074;28;3979;-73
2021/05/31 03:21:25;;;;;;;;;;;;;;;21.33;46.89;102059.41;2095932;28;4989;-71
2021/05/31 03:22:26;;;;;;;;;;;;;;;21.34;46.69;102056.25;2095351;28;5460;-78
2021/05/31 03:23:27;;;;;;;;;;;;;;;21.31;46.60;102064.56;2096979;28;3824;-73
2021/05/31 03:24:28;;;;;;;;;;;;;;;21.30;46.85;102065.75;2096277;28;4051;-73
2021/05/31 03:25:30;;;;;;;;;;;;;;;21.31;46.78;102058.88;2096500;28;4006;-73
2021/05/31 03:26:31;;;;;;;;;;;;;;;21.31;46.85;102065.44;2095131;28;4005;-73
2021/05/31 03:27:32;;;;;;;;;;;;;;;21.31;46.81;102061.72;2096223;28;4005;-73
2021/05/31 03:28:33;;;;;;;;;;;;;;;21.32;46.64;102060.59;2094962;28;4008;-73
2021/05/31 03:29:34;;;;;;;;;;;;;;;21.31;46.83;102059.75;2096222;28;3873;-72
2021/05/31 03:30:36;;;;;;;;;;;;;;;21.31;46.66;102065.44;2095190;28;4021;-71
2021/05/31 03:31:37;;;;;;;;;;;;;;;21.32;46.68;102063.44;2094897;28;3982;-72
2021/05/31 03:32:39;;;;;;;;;;;;;;;21.32;46.65;102067.13;2096034;28;3954;-73
2021/05/31 03:33:40;;;;;;;;;;;;;;;21.31;46.67;102065.44;2096547;28;4010;-72
2021/05/31 03:34:41;;;;;;;;;;;;;;;21.31;46.61;102058.88;2095794;28;4603;-72
2021/05/31 03:35:42;;;;;;;;;;;;;;;21.30;46.78;102060.91;2096615;28;3868;-73
2021/05/31 03:36:43;;;;;;;;;;;;;;;21.30;46.54;102063.75;2096009;28;5193;-73
2021/05/31 03:37:45;;;;;;;;;;;;;;;21.31;46.74;102068.28;2095839;28;4033;-72
2021/05/31 03:38:46;;;;;;;;;;;;;;;21.31;46.70;102062.59;2095623;28;4047;-72
2021/05/31 03:39:48;;;;;;;;;;;;;;;21.31;46.80;102059.75;2095956;28;3853;-73
2021/05/31 03:40:49;;;;;;;;;;;;;;;21.30;46.86;102063.75;2094546;28;3841;-73
2021/05/31 03:41:50;;;;;;;;;;;;;;;21.30;46.73;102058.06;2093967;28;5179;-75
2021/05/31 03:42:51;;;;;;;;;;;;;;;21.30;46.58;102062.91;2095345;28;4013;-74
2021/05/31 03:43:53;;;;;;;;;;;;;;;21.30;46.67;102063.75;2093703;28;4040;-73
2021/05/31 03:44:54;;;;;;;;;;;;;;;21.30;46.62;102060.91;2095571;28;4041;-72
2021/05/31 03:45:55;;;;;;;;;;;;;;;21.30;46.53;102063.75;2095833;28;4091;-72
2021/05/31 03:46:56;;;;;;;;;;;;;;;21.30;46.71;102060.91;2097917;28;4040;-72
2021/05/31 03:47:57;;;;;;;;;;;;;;;21.30;46.64;102062.91;2097741;28;4059;-70
2021/05/31 03:48:59;;;;;;;;;;;;;;;21.30;46.61;102063.75;2096662;28;3834;-71
2021/05/31 03:50:00;;;;;;;;;;;;;;;21.29;46.68;102059.22;2097309;28;4036;-70
2021/05/31 03:51:08;;;;;;;;;;;;;;;21.29;46.58;102058.41;2097022;28;4176;-69
2021/05/31 03:52:10;;;;;;;;;;;;;;;21.30;46.55;102063.75;2097301;28;5072;-72
2021/05/31 03:53:11;;;;;;;;;;;;;;;21.30;46.71;102057.22;2096036;28;3850;-72
2021/05/31 03:54:12;;;;;;;;;;;;;;;21.28;46.71;102060.41;2094090;28;3867;-73
2021/05/31 03:55:14;;;;;;;;;;;;;;;21.30;46.49;102062.91;2096560;28;4006;-73
2021/05/31 03:56:15;;;;;;;;;;;;;;;21.29;46.65;102062.06;2087783;28;4053;-80
2021/05/31 03:57:16;;;;;;;;;;;;;;;21.29;46.65;102064.91;2086659;28;3849;-77
2021/05/31 03:58:17;;;;;;;;;;;;;;;21.29;46.49;102062.06;2096844;28;3865;-72
2021/05/31 03:59:19;;;;;;;;;;;;;;;21.29;46.62;102056.38;2094755;28;3992;-72
2021/05/31 04:00:21;;;;;;;;;;;;;;;21.29;46.59;102055.53;2095688;28;3977;-72
2021/05/31 04:01:22;;;;;;;;;;;;;;;21.29;46.55;102061.25;2097699;28;5116;-71
2021/05/31 04:02:23;;;;;;;;;;;;;;;21.28;46.61;102060.41;2097506;28;3993;-73
2021/05/31 04:03:25;;;;;;;;;;;;;;;21.28;46.03;102065.22;2098231;28;3847;-73
2021/05/31 04:04:28;;;;;;;;;;;;;;;21.23;46.30;102062.53;2095863;28;3751;-73
2021/05/31 04:05:32;;;;;;;;;;;;;;;21.20;46.37;102066.00;2098235;28;3836;-73
2021/05/31 04:07:24;;;;;;;;;;;;;;;21.17;46.40;102066.66;2098319;28;4019;-73
2021/05/31 04:12:04;;;;;;;;;;;;;;;21.11;44.88;102063.94;2098316;28;3860;-71
2021/05/31 04:13:05;;;;;;;;;;;;;;;21.10;45.02;102059.44;2096954;28;4096;-73
2021/05/31 04:14:07;;;;;;;;;;;;;;;21.10;45.44;102065.13;2098431;28;4088;-72
2021/05/31 04:15:08;;;;;;;;;;;;;;;21.09;45.04;102059.78;2098423;28;3998;-74
2021/05/31 04:16:09;;;;;;;;;;;;;;;21.08;45.16;102061.75;2097229;28;3828;-73
2021/05/31 04:17:11;;;;;;;;;;;;;;;21.07;45.13;102059.25;2098302;28;3867;-72
2021/05/31 04:18:13;;;;;;;;;;;;;;;21.06;45.08;102064.09;2098274;28;4141;-77
2021/05/31 04:19:14;;;;;;;;;;;;;;;21.04;44.60;102057.88;2097529;28;4150;-78
2021/05/31 04:20:16;;;;;;;;;;;;;;;20.99;45.18;102060.03;2097231;28;3995;-78
2021/05/31 04:21:17;;;;;;;;;;;;;;;20.91;45.22;102059.63;2097374;28;5081;-75
2021/05/31 04:22:18;;;;;;;;;;;;;;;20.85;44.85;102060.06;2097534;28;3990;-74
2021/05/31 04:23:19;;;;;;;;;;;;;;;20.78;44.40;102063.34;2098857;28;3982;-74
2021/05/31 04:24:20;;;;;;;;;;;;;;;20.75;44.17;102064.00;2097385;28;4030;-75
2021/05/31 04:25:23;;;;;;;;;;;;;;;20.71;43.85;102054.44;2097841;28;3987;-78
2021/05/31 04:26:26;;;;;;;;;;;;;;;20.67;43.60;102059.06;2098742;28;4054;-82
2021/05/31 04:27:27;;;;;;;;;;;;;;;20.65;43.33;102055.72;2097048;28;4049;-78
2021/05/31 04:28:29;;;;;;;;;;;;;;;20.63;43.27;102064.56;2097955;28;4006;-76
2021/05/31 04:29:30;;;;;;;;;;;;;;;20.62;43.02;102065.75;2098323;28;3821;-80
2021/05/31 04:30:31;;;;;;;;;;;;;;;20.61;42.72;102068.88;2097723;28;3989;-86
2021/05/31 04:31:32;;;;;;;;;;;;;;;;;;2098068;28;5033;-84
2021/05/31 04:32:34;;;;;;;;;;;;;;;20.56;42.49;102066.16;2098362;28;3970;-78
2021/05/31 04:33:35;;;;;;;;;;;;;;;20.55;42.50;102070.19;2098467;28;3975;-83
2021/05/31 04:34:36;;;;;;;;;;;;;;;20.53;42.21;102069.63;2098378;28;4059;-85
2021/05/31 04:35:37;;;;;;;;;;;;;;;20.51;42.06;102063.41;2098339;28;3772;-83
2021/05/31 04:36:40;;;;;;;;;;;;;;;20.49;42.06;102068.59;2098755;28;3926;-87
2021/05/31 04:37:42;;;;;;;;;;;;;;;20.49;42.02;102074.28;2096595;28;3899;-80
2021/05/31 04:38:46;;;;;;;;;;;;;;;20.45;42.16;102072.06;2097209;28;4320;-83
2021/05/31 04:39:47;;;;;;;;;;;;;;;20.43;41.98;102071.53;2097483;28;3983;-78
2021/05/31 04:40:49;;;;;;;;;;;;;;;20.41;41.61;102073.84;2098816;28;4076;-88
2021/05/31 04:41:50;;;;;;;;;;;;;;;20.39;41.92;102076.16;2097958;28;4015;-81
2021/05/31 04:42:51;;;;;;;;;;;;;;;20.39;41.82;102069.66;2098030;28;3985;-85
2021/05/31 04:43:52;;;;;;;;;;;;;;;20.38;41.68;102077.34;2097602;28;4003;-88
2021/05/31 04:44:54;;;;;;;;;;;;;;;20.36;42.00;102065.44;2096930;28;4034;-79
2021/05/31 04:45:55;;;;;;;;;;;;;;;20.34;41.89;102070.59;2097631;28;4006;-81
2021/05/31 04:46:56;;;;;;;;;;;;;;;20.33;41.80;102068.09;2097526;28;4065;-82
2021/05/31 04:47:57;;;;;;;;;;;;;;;20.32;41.80;102069.22;2098268;28;4010;-84
2021/05/31 04:49:01;;;;;;;;;;;;;;;20.31;41.74;102076.06;2098201;28;3898;-83
2021/05/31 04:50:02;;;;;;;;;;;;;;;20.30;41.70;102068.72;2096894;28;3922;-76
2021/05/31 04:51:04;;;;;;;;;;;;;;;20.30;41.85;102068.72;2098246;28;4225;-74
2021/05/31 04:52:05;;;;;;;;;;;;;;;20.33;41.78;102068.09;2097629;28;3992;-75
2021/05/31 04:53:06;;;;;;;;;;;;;;;20.35;41.88;102062.94;2097005;28;6299;-74
2021/05/31 04:54:07;;;;;;;;;;;;;;;20.36;42.01;102064.59;2097704;28;3896;-77
2021/05/31 04:55:14;;;;;;;;;;;;;;;20.36;42.12;102071.13;2097410;28;4026;-76
2021/05/31 04:56:16;;;;;;;;;;;;;;;20.37;42.11;102074.81;2098144;28;3995;-78
2021/05/31 04:57:17;;;;;;;;;;;;;;;20.37;42.34;102069.97;2097570;28;3893;-72
2021/05/31 04:58:18;;;;;;;;;;;;;;;20.39;42.38;102066.81;2097454;28;4018;-73
2021/05/31 04:59:20;;;;;;;;;;;;;;;20.40;42.61;102069.34;2097901;28;4063;-72
2021/05/31 05:00:21;;;;;;;;;;;;;;;20.42;42.71;102072.69;2096894;28;3860;-74
2021/05/31 05:01:22;;;;;;;;;;;;;;;20.43;43.02;102071.53;2097578;28;3859;-74
2021/05/31 05:02:24;;;;;;;;;;;;;;;20.44;43.14;102072.38;2097578;28;4040;-73
2021/05/31 05:03:25;;;;;;;;;;;;;;;20.45;43.03;102069.22;2097769;28;4188;-73
2021/05/31 05:04:26;;;;;;;;;;;;;;;20.47;43.14;102071.75;2097264;28;3997;-74
2021/05/31 05:05:27;;;;;;;;;;;;;;;20.49;43.18;102071.44;2091796;28;3978;-75
2021/05/31 05:06:28;;;;;;;;;;;;;;;20.49;43.15;102072.28;2093561;28;3993;-74
2021/05/31 05:07:30;;;;;;;;;;;;;;;20.50;43.12;102068.25;2097195;28;4010;-74
2021/05/31 05:08:34;;;;;;;;;;;;;;;20.52;43.21;102070.78;2097445;28;3966;-73
2021/05/31 05:09:56;;;;;;;;;;;;;;;20.51;43.24;102064.25;2073305;28;3942;-75
2021/05/31 05:10:57;;;;;;;;;;;;;;;20.52;43.32;102059.41;2089670;28;4036;-74
2021/05/31 05:11:58;;;;;;;;;;;;;;;20.53;43.42;102063.94;2097874;28;4046;-73
2021/05/31 05:13:00;;;;;;;;;;;;;;;20.53;43.41;102073.31;2096729;28;4046;-71
2021/05/31 05:14:01;;;;;;;;;;;;;;;20.53;43.42;102061.09;2098127;28;4275;-73
2021/05/31 05:15:02;;;;;;;;;;;;;;;20.53;43.42;102061.09;2096998;28;4071;-74
2021/05/31 05:16:04;;;;;;;;;;;;;;;20.54;43.61;102063.66;2096859;28;3996;-73
2021/05/31 05:17:05;;;;;;;;;;;;;;;20.54;43.61;102068.47;2095656;28;4982;-73
2021/05/31 05:18:06;;;;;;;;;;;;;;;20.54;43.62;102075.03;2096070;28;4031;-74
2021/05/31 05:19:07;;;;;;;;;;;;;;;20.55;43.73;102073.84;2096757;28;5065;-86
2021/05/31 05:20:09;;;;;;;;;;;;;;;20.54;43.62;102071.31;2095563;28;4130;-74
2021/05/31 05:21:10;;;;;;;;;;;;;;;20.53;43.65;102066.78;2087722;28;4573;-77
2021/05/31 05:22:11;;;;;;;;;;;;;;;20.54;43.74;102068.47;2087568;28;4112;-75
2021/05/31 05:23:12;;;;;;;;;;;;;;;20.54;43.74;102074.16;2095981;28;4099;-77
2021/05/31 05:24:27;;;;;;;;;;;;;;;20.54;43.74;102075.03;2096374;28;4008;-76
2021/05/31 05:25:28;;;;;;;;;;;;;;;20.55;43.80;102073.03;2091016;28;4012;-78